Time;durP1;ratioP1;P1;durP2;ratioP2;P2;SDS_P1;SDS_P2;PMS_P1;PMS_P2;Temp;Humidity;BMP_temperature;BMP_pressure;BME280_temperature;BME280_humidity;BME280_pressure;Samples;Min_cycle;Max_cycle;Signal;HPM_P1;HPM_P2
2021/12/07 00:02:02;;;;;;;24.45;15.30;;;;;;;6.49;66.75;99722.70;1726363;82;21616;-64
2021/12/07 00:04:29;;;;;;;24.77;15.85;;;;;;;6.47;66.72;99731.42;1727608;82;21086;-65
2021/12/07 00:06:55;;;;;;;24.55;15.93;;;;;;;6.35;66.69;99730.26;1723657;82;21181;-65
2021/12/07 00:09:22;;;;;;;26.00;16.23;;;;;;;6.22;66.88;99728.79;1723068;82;21078;-65
2021/12/07 00:11:49;;;;;;;23.30;16.10;;;;;;;6.22;67.15;99718.19;1727400;82;21163;-64
2021/12/07 00:14:23;;;;;;;25.48;16.82;;;;;;;6.28;67.34;99726.45;1727189;82;21509;-65
2021/12/07 00:16:45;;;;;;;24.37;16.00;;;;;;;6.38;67.31;99717.00;1729705;82;21457;-64
2021/12/07 00:19:12;;;;;;;24.15;16.40;;;;;;;6.39;67.38;99709.34;1728902;82;21616;-64
2021/12/07 00:21:40;;;;;;;27.20;16.00;;;;;;;6.44;67.35;99729.27;1723939;82;21550;-64
2021/12/07 00:24:08;;;;;;;24.43;15.90;;;;;;;6.45;67.21;99738.82;1726515;82;21060;-64
2021/12/07 00:26:34;;;;;;;23.80;15.30;;;;;;;6.45;67.20;99721.58;1730377;82;21470;-64
2021/12/07 00:29:03;;;;;;;25.62;15.68;;;;;;;6.46;67.19;99706.75;1737349;82;21233;-64
2021/12/07 00:31:38;;;;;;;24.02;15.95;;;;;;;6.48;67.29;99718.42;1737196;82;21557;-64
2021/12/07 00:34:36;;;;;;;22.55;15.10;;;;;;;6.55;67.36;99730.99;1708728;82;21534;-64
2021/12/07 00:36:46;;;;;;;23.10;15.35;;;;;;;6.62;67.28;99734.23;1706693;83;21064;-64
2021/12/07 00:39:16;;;;;;;19.40;13.38;;;;;;;6.70;67.17;99740.41;1709304;83;21540;-65
2021/12/07 00:41:42;;;;;;;22.13;14.73;;;;;;;6.75;67.08;99747.63;1710520;83;20991;-66
2021/12/07 00:44:09;;;;;;;21.17;13.78;;;;;;;6.75;66.96;99755.06;1719877;81;20970;-64
2021/12/07 00:46:36;;;;;;;24.47;15.75;;;;;;;6.72;66.82;99750.79;1740584;81;21536;-65
2021/12/07 00:49:03;;;;;;;24.05;16.82;;;;;;;6.64;66.67;99745.39;1738320;82;23212;-65
2021/12/07 00:51:30;;;;;;;23.42;15.93;;;;;;;6.58;66.69;99739.25;1740208;81;21027;-65
2021/12/07 00:53:57;;;;;;;21.73;14.68;;;;;;;6.63;66.81;99741.14;1739800;82;20968;-65
2021/12/07 00:56:23;;;;;;;25.08;16.12;;;;;;;6.67;66.81;99730.83;1739817;82;21034;-65
2021/12/07 00:58:51;;;;;;;24.55;14.98;;;;;;;6.71;66.76;99732.74;1738748;82;21520;-65
2021/12/07 01:01:19;;;;;;;23.67;14.90;;;;;;;6.76;66.61;99735.95;1739060;82;21227;-64
2021/12/07 01:03:48;;;;;;;24.25;15.83;;;;;;;6.71;66.51;99726.11;1740082;82;21026;-64
2021/12/07 01:06:27;;;;;;;24.32;15.48;;;;;;;6.69;66.58;99730.06;1740178;82;20963;-64
2021/12/07 01:25:07;;;;;;;25.27;15.93;;;;;;;6.98;66.26;99743.86;1740165;82;21513;-64
2021/12/07 01:27:34;;;;;;;26.30;16.48;;;;;;;6.96;66.06;99744.63;1740017;82;21156;-64
2021/12/07 01:30:17;;;;;;;24.10;15.88;;;;;;;6.92;66.00;99735.57;1740247;82;21478;-64
2021/12/07 01:35:33;;;;;;;25.90;16.20;;;;;;;6.89;66.02;99718.81;1696353;81;21106;-63
2021/12/07 01:38:05;;;;;;;26.68;16.73;;;;;;;6.92;66.11;99713.80;1736189;82;21022;-64
2021/12/07 01:40:39;;;;;;;28.98;16.30;;;;;;;6.93;66.15;99715.92;1736690;81;21144;-66
2021/12/07 01:50:48;;;;;;;28.42;16.93;;;;;;;6.98;65.78;99734.03;1740288;82;21066;-65
2021/12/07 01:53:17;;;;;;;26.07;16.17;;;;;;;6.89;65.73;99738.20;1736095;82;21203;-65
2021/12/07 02:00:53;;;;;;;27.50;16.32;;;;;;;6.67;65.91;99741.44;1740151;82;21438;-64
2021/12/07 02:03:20;;;;;;;;;;;;;;;6.67;65.98;99745.42;1743292;82;21106;-64
2021/12/07 02:05:47;;;;;;;28.23;17.70;;;;;;;6.69;66.08;99749.96;1740286;82;21095;-64
2021/12/07 02:08:14;;;;;;;27.35;17.50;;;;;;;6.68;66.19;99745.19;1740218;82;20952;-64
2021/12/07 02:10:42;;;;;;;23.75;15.40;;;;;;;6.71;66.29;99743.86;1740121;82;20999;-64
2021/12/07 02:14:01;;;;;;;25.02;16.15;;;;;;;6.74;66.36;99736.72;1740787;82;21573;-64
2021/12/07 02:15:48;;;;;;;24.87;16.55;;;;;;;6.76;66.35;99742.59;1735856;82;20963;-64
2021/12/07 02:18:15;;;;;;;27.90;16.57;;;;;;;6.80;66.34;99742.36;1741184;81;21523;-64
2021/12/07 02:20:50;;;;;;;29.55;17.60;;;;;;;6.82;66.26;99741.59;1740037;82;21434;-64
2021/12/07 02:23:16;;;;;;;27.20;16.60;;;;;;;6.82;66.20;99740.27;1740510;82;21054;-65
2021/12/07 02:25:44;;;;;;;29.52;17.07;;;;;;;6.85;66.12;99738.44;1739939;82;21050;-65
2021/12/07 02:28:14;;;;;;;28.42;17.90;;;;;;;6.85;66.07;99735.78;1740755;82;21013;-65
2021/12/07 02:30:41;;;;;;;30.70;17.70;;;;;;;6.77;66.02;99734.36;1740185;82;21152;-65
2021/12/07 02:33:09;;;;;;;29.65;18.23;;;;;;;6.74;66.11;99740.17;1740676;82;21027;-65
2021/12/07 02:35:38;;;;;;;33.67;18.70;;;;;;;6.75;66.16;99734.36;1740387;82;21114;-65
2021/12/07 02:38:05;;;;;;;30.10;18.37;;;;;;;6.76;66.22;99731.45;1740806;82;21011;-65
2021/12/07 02:40:35;;;;;;;32.23;18.23;;;;;;;6.80;66.24;99730.41;1740516;82;21551;-64
2021/12/07 02:43:03;;;;;;;30.32;18.67;;;;;;;6.83;66.32;99733.89;1740673;82;21156;-64
2021/12/07 02:45:30;;;;;;;29.63;18.57;;;;;;;6.90;66.36;99736.34;1740554;82;20967;-64
2021/12/07 02:47:57;;;;;;;37.05;19.57;;;;;;;6.98;66.36;99749.96;1740569;82;21026;-64
2021/12/07 02:50:24;;;;;;;31.75;17.77;;;;;;;7.03;66.37;99743.88;1740340;82;21544;-65
2021/12/07 02:52:51;;;;;;;34.25;18.20;;;;;;;7.10;66.35;99746.33;1740849;82;21723;-65
2021/12/07 02:55:18;;;;;;;33.25;19.07;;;;;;;7.11;66.21;99751.40;1740573;82;21910;-65
2021/12/07 02:57:46;;;;;;;30.77;17.95;;;;;;;7.12;66.14;99741.04;1740313;82;21032;-66
2021/12/07 03:00:19;;;;;;;28.83;15.95;;;;;;;7.14;66.08;99740.77;1740562;82;21007;-65
2021/12/07 03:03:00;;;;;;;24.67;15.40;;;;;;;7.09;65.89;99734.11;1740787;82;21059;-65
2021/12/07 03:05:38;;;;;;;25.90;15.30;;;;;;;6.96;65.87;99731.34;1739614;82;21054;-64
2021/12/07 03:27:07;;;;;;;30.32;17.62;;;;;;;6.74;66.11;99737.52;1740084;81;21105;-65
2021/12/07 03:29:35;;;;;;;28.75;16.52;;;;;;;6.78;66.23;99745.28;1740234;82;20952;-64
2021/12/07 03:32:04;;;;;;;28.75;16.23;;;;;;;6.84;66.11;99741.33;1740641;82;21074;-64
2021/12/07 03:34:33;;;;;;;26.33;15.65;;;;;;;6.89;66.03;99745.36;1740191;82;20999;-65
2021/12/07 03:36:59;;;;;;;27.13;16.05;;;;;;;6.89;65.98;99750.14;1740672;82;21082;-64
2021/12/07 03:39:27;;;;;;;29.05;17.60;;;;;;;6.90;65.94;99762.88;1740465;82;21453;-65
2021/12/07 03:41:54;;;;;;;28.00;17.00;;;;;;;6.89;65.84;99762.09;1740369;82;21498;-64
2021/12/07 03:44:21;;;;;;;29.55;17.07;;;;;;;6.87;65.80;99752.77;1740524;82;21018;-64
2021/12/07 03:46:49;;;;;;;27.22;16.42;;;;;;;6.85;65.81;99744.27;1740653;81;21120;-64
2021/12/07 03:49:15;;;;;;;26.35;16.27;;;;;;;6.84;66.01;99738.14;1740954;81;21010;-65
2021/12/07 03:51:42;;;;;;;24.77;15.32;;;;;;;6.90;65.97;99745.62;1740406;82;21018;-65
2021/12/07 03:54:08;;;;;;;28.38;16.15;;;;;;;6.92;65.88;99752.83;1740093;82;21043;-65
2021/12/07 03:56:35;;;;;;;27.48;17.12;;;;;;;6.93;65.86;99765.03;1740791;82;21584;-64
2021/12/07 03:59:02;;;;;;;25.08;16.12;;;;;;;6.94;65.87;99774.09;1740412;82;21791;-64
2021/12/07 04:01:30;;;;;;;22.85;15.50;;;;;;;6.94;65.83;99782.56;1740510;82;21121;-64
2021/12/07 04:03:57;;;;;;;25.57;15.03;;;;;;;6.91;65.81;99781.23;1740269;82;21015;-65
2021/12/07 04:06:24;;;;;;;24.32;14.58;;;;;;;6.84;65.67;99778.48;1740601;82;21059;-64
2021/12/07 04:08:50;;;;;;;23.98;15.20;;;;;;;6.67;65.66;99777.26;1740366;82;21022;-65
2021/12/07 04:11:17;;;;;;;22.98;14.13;;;;;;;6.53;65.75;99775.00;1740591;82;21236;-64
2021/12/07 04:13:45;;;;;;;21.93;14.15;;;;;;;6.45;65.94;99770.66;1740345;82;21039;-66
2021/12/07 04:16:14;;;;;;;22.58;14.45;;;;;;;6.35;66.09;99772.70;1740441;82;21419;-64
2021/12/07 04:18:42;;;;;;;23.32;14.15;;;;;;;6.33;66.33;99773.45;1740345;82;21707;-64
2021/12/07 04:21:10;;;;;;;24.12;14.30;;;;;;;6.36;66.48;99777.47;1740407;82;21042;-65
2021/12/07 04:23:36;;;;;;;20.43;13.25;;;;;;;6.37;66.51;99785.70;1740542;82;21168;-65
2021/12/07 04:26:08;;;;;;;16.77;11.83;;;;;;;6.32;66.61;99787.25;1740203;82;21096;-65
2021/12/07 04:28:35;;;;;;;18.65;12.47;;;;;;;6.29;66.73;99786.95;1740556;82;21217;-65
2021/12/07 04:31:01;;;;;;;18.27;12.68;;;;;;;6.25;66.79;99795.92;1740460;82;21023;-65
2021/12/07 04:33:31;;;;;;;19.50;12.90;;;;;;;6.22;66.94;99803.04;1740839;82;20995;-65
2021/12/07 04:35:58;;;;;;;18.57;13.28;;;;;;;6.25;67.12;99801.22;1740400;82;21762;-66
2021/12/07 04:38:24;;;;;;;18.55;12.60;;;;;;;6.33;67.22;99800.78;1740562;82;20952;-63
2021/12/07 04:40:51;;;;;;;19.70;12.82;;;;;;;6.45;67.26;99794.53;1738465;81;20995;-64
2021/12/07 04:43:17;;;;;;;18.00;12.45;;;;;;;6.56;67.27;99794.94;1733566;82;21430;-66
2021/12/07 04:59:07;;;;;;;17.55;12.10;;;;;;;6.71;66.61;99804.89;1743399;81;21537;-66
2021/12/07 05:01:34;;;;;;;20.00;13.35;;;;;;;6.77;66.56;99802.05;1756378;81;21159;-63
2021/12/07 05:04:06;;;;;;;18.85;13.22;;;;;;;6.79;66.52;99798.62;1756102;81;21118;-63
2021/12/07 05:06:32;;;;;;;21.12;13.90;;;;;;;6.83;66.48;99804.23;1755845;81;21462;-65
2021/12/07 05:09:05;;;;;;;20.85;14.03;;;;;;;6.86;66.49;99806.92;1756016;81;21161;-65
2021/12/07 05:11:46;;;;;;;18.98;12.70;;;;;;;6.91;66.35;99803.80;1755123;81;21007;-64
2021/12/07 05:14:17;;;;;;;19.27;12.58;;;;;;;6.93;66.36;99803.53;1751876;81;21168;-64
2021/12/07 05:38:30;;;;;;;37.73;23.55;;;;;;;6.88;65.76;99792.35;1742316;81;21024;-64
2021/12/07 05:40:58;;;;;;;26.33;18.02;;;;;;;6.90;65.84;99804.83;1733541;82;21517;-65
2021/12/07 05:43:25;;;;;;;26.05;18.30;;;;;;;6.90;65.83;99803.50;1733423;82;21091;-65
2021/12/07 05:45:52;;;;;;;24.00;16.77;;;;;;;6.93;65.80;99806.19;1733351;82;21008;-65
2021/12/07 05:48:19;;;;;;;24.55;17.00;;;;;;;6.92;65.77;99803.27;1733516;82;21071;-66
2021/12/07 05:50:45;;;;;;;22.52;16.17;;;;;;;6.90;65.80;99808.02;1733377;82;21460;-65
2021/12/07 05:53:12;;;;;;;25.10;17.80;;;;;;;6.89;65.85;99819.69;1733872;82;21522;-65
2021/12/07 05:55:38;;;;;;;29.87;19.87;;;;;;;6.85;65.99;99812.76;1733358;82;21518;-65
2021/12/07 05:58:08;;;;;;;31.12;20.45;;;;;;;6.86;65.98;99818.86;1746498;81;21442;-64
2021/12/07 06:00:35;;;;;;;35.73;21.62;;;;;;;6.91;65.96;99822.88;1756177;81;21035;-65
2021/12/07 06:03:05;;;;;;;31.50;21.05;;;;;;;6.98;65.90;99822.97;1756248;81;21442;-63
2021/12/07 06:05:32;;;;;;;35.60;22.48;;;;;;;7.04;65.81;99814.52;1756238;81;21479;-65
2021/12/07 06:07:59;;;;;;;39.45;23.07;;;;;;;7.06;65.71;99812.41;1756548;81;20963;-65
2021/12/07 06:10:25;;;;;;;34.45;22.90;;;;;;;7.10;65.67;99814.04;1756334;81;20999;-64
2021/12/07 06:12:52;;;;;;;34.88;21.48;;;;;;;7.10;65.62;99813.51;1756528;81;21067;-64
2021/12/07 06:15:21;;;;;;;36.70;23.02;;;;;;;7.07;65.62;99803.39;1757036;80;20996;-64
2021/12/07 06:17:47;;;;;;;30.35;19.67;;;;;;;7.10;65.57;99798.11;1731237;81;21118;-65
2021/12/07 06:20:15;;;;;;;32.63;21.52;;;;;;;7.04;65.49;99799.91;1724582;83;21021;-65
2021/12/07 06:22:43;;;;;;;39.10;23.02;;;;;;;6.93;65.49;99803.53;1726049;83;21043;-65
2021/12/07 06:25:10;;;;;;;35.65;22.52;;;;;;;6.85;65.60;99808.77;1730627;83;21395;-65
2021/12/07 06:27:42;;;;;;;39.08;25.05;;;;;;;6.84;65.73;99809.01;1724897;83;21039;-65
2021/12/07 06:30:10;;;;;;;38.67;24.00;;;;;;;6.86;65.84;99815.68;1730742;83;21988;-65
2021/12/07 06:32:37;;;;;;;38.30;25.10;;;;;;;6.89;65.84;99823.67;1730560;81;20972;-65
2021/12/07 06:35:04;;;;;;;40.90;25.82;;;;;;;6.93;65.90;99834.06;1715833;81;21054;-65
2021/12/07 06:37:32;;;;;;;37.93;24.82;;;;;;;6.99;65.92;99843.69;1730561;83;21055;-65
2021/12/07 06:39:59;;;;;;;38.28;25.43;;;;;;;7.06;65.98;99834.98;1758798;81;21443;-64
2021/12/07 06:42:26;;;;;;;35.48;25.12;;;;;;;7.06;66.00;99846.94;1738868;81;21163;-64
2021/12/07 06:44:53;;;;;;;35.00;23.83;;;;;;;7.09;65.96;99851.75;1706208;83;21027;-64
2021/12/07 06:47:19;;;;;;;37.70;23.95;;;;;;;7.13;65.91;99861.34;1744382;81;21050;-64
2021/12/07 06:49:49;;;;;;;31.82;21.27;;;;;;;7.17;65.89;99861.94;1721158;83;21510;-64
2021/12/07 06:52:16;;;;;;;39.13;23.90;;;;;;;7.17;65.78;99867.24;1729196;83;21157;-64
2021/12/07 06:54:42;;;;;;;37.55;23.65;;;;;;;7.12;65.78;99861.88;1713819;83;21177;-64
2021/12/07 06:57:09;;;;;;;39.13;25.23;;;;;;;7.17;65.84;99861.94;1735829;82;21542;-65
2021/12/07 06:59:36;;;;;;;39.40;25.12;;;;;;;7.24;65.95;99865.18;1756425;81;21541;-65
2021/12/07 07:02:03;;;;;;;40.85;26.57;;;;;;;7.35;66.01;99857.30;1730683;83;21502;-65
2021/12/07 07:04:30;;;;;;;41.13;26.23;;;;;;;7.45;65.95;99854.20;1725271;81;21668;-65
2021/12/07 07:06:56;;;;;;;40.33;26.35;;;;;;;7.51;65.79;99843.09;1710768;83;21798;-65
2021/12/07 07:09:24;;;;;;;47.62;28.50;;;;;;;7.55;65.71;99842.84;1710770;82;21051;-66
2021/12/07 07:11:51;;;;;;;43.87;28.20;;;;;;;7.57;65.49;99843.41;1711013;83;21009;-65
2021/12/07 07:14:17;;;;;;;41.92;27.45;;;;;;;7.57;65.32;99842.08;1710977;82;21311;-65
2021/12/07 07:16:44;;;;;;;42.33;28.12;;;;;;;7.51;65.08;99837.24;1710903;83;21111;-65
2021/12/07 07:19:10;;;;;;;43.48;27.82;;;;;;;7.42;65.00;99841.95;1710634;83;21144;-65
2021/12/07 07:21:37;;;;;;;39.83;27.40;;;;;;;7.37;64.98;99844.55;1710939;83;20964;-65
2021/12/07 07:24:05;;;;;;;34.23;23.42;;;;;;;7.31;64.87;99847.70;1711173;83;21106;-64
2021/12/07 07:26:31;;;;;;;33.33;23.65;;;;;;;7.21;64.84;99849.75;1710912;83;21059;-65
2021/12/07 07:28:58;;;;;;;29.98;20.00;;;;;;;7.07;64.79;99845.08;1710932;83;21138;-65
2021/12/07 07:31:24;;;;;;;30.40;19.80;;;;;;;6.99;64.85;99844.48;1710890;83;21155;-64
2021/12/07 07:33:53;;;;;;;29.45;20.12;;;;;;;6.91;64.93;99851.58;1710723;83;21084;-64
2021/12/07 07:36:20;;;;;;;32.65;20.25;;;;;;;6.86;65.07;99859.48;1711057;82;20975;-64
2021/12/07 07:38:46;;;;;;;30.30;20.75;;;;;;;6.90;65.02;99860.58;1710760;83;21125;-64
2021/12/07 07:41:13;;;;;;;28.65;19.15;;;;;;;6.88;65.02;99860.55;1710839;82;21059;-64
2021/12/07 07:43:40;;;;;;;28.30;18.25;;;;;;;6.86;65.16;99867.44;1710999;83;22000;-65
2021/12/07 07:46:08;;;;;;;28.07;18.70;;;;;;;6.83;65.21;99877.76;1708239;83;20983;-65
2021/12/07 07:48:35;;;;;;;24.57;17.45;;;;;;;6.84;65.19;99872.19;1710804;83;21019;-65
2021/12/07 07:51:01;;;;;;;25.08;17.15;;;;;;;6.87;65.15;99868.23;1710991;82;21042;-65
2021/12/07 07:53:28;;;;;;;26.60;18.67;;;;;;;6.87;65.12;99864.26;1710894;83;21071;-64
2021/12/07 07:55:56;;;;;;;25.23;17.77;;;;;;;6.83;65.16;99860.50;1751946;81;21503;-65
2021/12/07 07:58:23;;;;;;;28.20;17.85;;;;;;;6.78;65.18;99858.61;1730523;83;21007;-64
2021/12/07 08:00:49;;;;;;;25.08;16.32;;;;;;;6.71;65.16;99863.28;1756308;81;21015;-65
2021/12/07 08:03:16;;;;;;;22.60;15.18;;;;;;;6.63;65.17;99872.48;1756740;81;21050;-65
2021/12/07 08:05:43;;;;;;;22.27;14.90;;;;;;;6.56;65.26;99872.67;1732468;81;21050;-65
2021/12/07 08:08:10;;;;;;;17.27;12.65;;;;;;;6.52;65.41;99862.81;1726572;83;21126;-65
2021/12/07 08:10:37;;;;;;;16.75;11.35;;;;;;;6.54;65.39;99872.11;1725454;83;20956;-68
2021/12/07 08:13:05;;;;;;;15.50;10.30;;;;;;;6.52;65.28;99869.45;1710301;83;21467;-66
2021/12/07 08:15:36;;;;;;;14.10;9.78;;;;;;;6.49;65.14;99864.10;1710844;83;21014;-67
2021/12/07 08:18:05;;;;;;;11.78;8.78;;;;;;;6.45;65.05;99868.80;1711264;83;21002;-65
2021/12/07 08:20:33;;;;;;;12.30;8.70;;;;;;;6.41;65.07;99871.68;1710886;83;21104;-64
2021/12/07 08:23:04;;;;;;;12.28;8.40;;;;;;;6.37;65.14;99876.67;1710962;83;21512;-64
2021/12/07 08:25:31;;;;;;;11.78;8.50;;;;;;;6.36;65.16;99863.67;1733610;82;21463;-64
2021/12/07 08:27:58;;;;;;;11.53;8.60;;;;;;;6.32;65.15;99871.32;1733788;82;21466;-65
2021/12/07 08:30:24;;;;;;;11.97;9.03;;;;;;;6.28;65.22;99870.98;1733744;81;21475;-65
2021/12/07 08:32:51;;;;;;;11.83;8.68;;;;;;;6.27;65.33;99883.97;1730210;81;21869;-65
2021/12/07 08:35:19;;;;;;;13.22;9.45;;;;;;;6.24;65.33;99884.98;1757615;80;20949;-65
2021/12/07 08:37:49;;;;;;;13.32;9.50;;;;;;;6.23;65.23;99886.84;1725847;81;21022;-65
2021/12/07 08:40:21;;;;;;;14.23;9.60;;;;;;;6.21;65.24;99886.27;1730439;83;21036;-66
2021/12/07 08:42:48;;;;;;;15.03;10.50;;;;;;;6.20;65.29;99873.27;1756613;81;21106;-65
2021/12/07 08:45:15;;;;;;;12.70;9.75;;;;;;;6.15;65.32;99871.86;1726091;82;21123;-66
2021/12/07 08:47:41;;;;;;;12.98;9.45;;;;;;;6.10;65.37;99866.77;1705019;83;21078;-65
2021/12/07 08:50:13;;;;;;;12.73;9.90;;;;;;;6.09;65.52;99867.03;1731883;82;21093;-65
2021/12/07 08:52:39;;;;;;;12.90;9.15;;;;;;;6.09;65.63;99877.64;1702313;83;20963;-65
2021/12/07 09:00:27;;;;;;;11.90;8.93;;;;;;;6.03;65.90;99861.38;1729545;83;21034;-65
2021/12/07 09:02:54;;;;;;;11.08;7.95;;;;;;;6.09;65.73;99867.03;1730058;83;21061;-66
2021/12/07 09:05:20;;;;;;;10.85;8.15;;;;;;;6.11;65.71;99870.22;1729592;83;21046;-65
2021/12/07 09:07:48;;;;;;;11.55;8.25;;;;;;;6.09;65.64;99869.69;1729965;83;21478;-65
2021/12/07 09:10:15;;;;;;;13.15;9.85;;;;;;;6.09;65.65;99864.38;1729273;83;21558;-65
2021/12/07 09:12:41;;;;;;;12.18;8.95;;;;;;;6.04;65.70;99866.42;1730086;83;21533;-65
2021/12/07 09:15:09;;;;;;;13.10;9.55;;;;;;;5.96;65.97;99864.20;1729484;83;21006;-66
2021/12/07 09:17:36;;;;;;;12.37;8.88;;;;;;;5.92;66.00;99861.70;1730083;83;21499;-64
2021/12/07 09:20:10;;;;;;;11.90;8.70;;;;;;;5.99;65.91;99861.56;1729372;83;20920;-65
2021/12/07 09:22:37;;;;;;;12.60;9.10;;;;;;;6.03;65.76;99856.08;1730109;83;21803;-65
2021/12/07 09:25:05;;;;;;;11.12;9.08;;;;;;;6.06;65.72;99855.59;1729327;83;21474;-66
2021/12/07 09:27:32;;;;;;;12.78;9.20;;;;;;;6.09;65.73;99859.08;1729758;83;21611;-66
2021/12/07 09:29:59;;;;;;;12.88;9.70;;;;;;;6.05;65.69;99847.34;1756227;81;20964;-65
2021/12/07 09:32:25;;;;;;;13.95;10.13;;;;;;;6.05;65.71;99848.66;1730409;83;21058;-65
2021/12/07 09:34:52;;;;;;;12.98;9.03;;;;;;;6.08;65.78;99845.52;1716913;81;21149;-65
2021/12/07 09:37:19;;;;;;;14.15;10.13;;;;;;;6.10;65.67;99855.38;1738168;81;20963;-65
2021/12/07 09:39:46;;;;;;;13.90;10.53;;;;;;;6.06;65.60;99863.55;1738754;82;21026;-66
2021/12/07 09:42:12;;;;;;;14.05;10.40;;;;;;;6.00;65.69;99857.88;1739084;82;21058;-65
2021/12/07 09:44:39;;;;;;;14.05;10.40;;;;;;;5.98;65.75;99850.69;1738740;82;20968;-65
2021/12/07 09:47:07;;;;;;;14.55;10.48;;;;;;;5.98;65.83;99854.66;1739131;82;21230;-65
2021/12/07 09:49:34;;;;;;;12.90;10.20;;;;;;;5.98;65.91;99841.41;1738765;82;21007;-65
2021/12/07 09:52:01;;;;;;;14.25;10.48;;;;;;;6.00;65.94;99836.15;1739380;82;21050;-65
2021/12/07 09:54:27;;;;;;;12.70;9.38;;;;;;;6.00;65.95;99836.15;1740461;82;20978;-65
2021/12/07 09:56:54;;;;;;;11.30;8.78;;;;;;;5.94;66.13;99831.02;1740441;82;21116;-65
2021/12/07 09:59:21;;;;;;;13.32;9.90;;;;;;;5.94;66.08;99825.72;1739374;82;21142;-64
2021/12/07 10:01:48;;;;;;;11.78;8.93;;;;;;;5.92;66.09;99829.89;1740621;82;20955;-66
2021/12/07 10:04:15;;;;;;;9.98;7.47;;;;;;;5.94;66.17;99827.05;1740692;82;21117;-65
2021/12/07 10:06:42;;;;;;;10.28;7.78;;;;;;;5.91;66.08;99820.88;1740300;82;21513;-65
2021/12/07 10:09:08;;;;;;;10.85;7.08;;;;;;;5.86;66.15;99836.99;1714229;82;21031;-65
2021/12/07 10:11:36;;;;;;;8.75;6.70;;;;;;;5.84;66.27;99840.39;1711116;83;21158;-65
2021/12/07 10:14:04;;;;;;;8.65;6.33;;;;;;;5.84;66.22;99840.39;1710701;83;21081;-64
2021/12/07 10:16:30;;;;;;;9.40;6.90;;;;;;;5.80;66.25;99835.31;1719884;82;21049;-65
2021/12/07 10:18:58;;;;;;;9.33;6.03;;;;;;;5.77;66.32;99843.73;1740572;82;21512;-65
2021/12/07 10:21:31;;;;;;;8.35;5.65;;;;;;;5.72;66.36;99837.03;1740625;82;21030;-65
2021/12/07 10:24:06;;;;;;;9.18;6.40;;;;;;;5.77;66.28;99825.19;1740396;82;21132;-65
2021/12/07 10:26:34;;;;;;;8.75;6.22;;;;;;;5.80;66.18;99836.63;1737924;81;21154;-65
2021/12/07 10:29:12;;;;;;;8.83;6.40;;;;;;;5.82;66.17;99844.33;1740709;81;22236;-65
2021/12/07 10:31:48;;;;;;;8.38;6.10;;;;;;;5.81;66.22;99837.43;1740545;82;21077;-65
2021/12/07 10:34:29;;;;;;;7.75;5.83;;;;;;;5.80;66.27;99840.61;1740984;81;21079;-65
2021/12/07 10:37:07;;;;;;;7.80;5.67;;;;;;;5.74;66.41;99837.60;1740759;82;21621;-65
2021/12/07 10:39:44;;;;;;;8.05;6.00;;;;;;;5.67;66.57;99830.34;1740664;81;21011;-65
2021/12/07 10:42:15;;;;;;;8.80;6.10;;;;;;;5.63;66.72;99837.98;1740542;82;21113;-64
2021/12/07 10:44:41;;;;;;;8.80;6.20;;;;;;;5.60;66.87;99837.13;1740454;82;21031;-64
2021/12/07 10:47:12;;;;;;;8.38;6.47;;;;;;;5.59;66.95;99836.86;1740217;82;20999;-64
2021/12/07 10:49:54;;;;;;;8.73;6.10;;;;;;;5.59;67.06;99833.38;1740577;82;21062;-64
2021/12/07 10:52:34;;;;;;;8.10;6.30;;;;;;;5.61;67.10;99845.88;1740707;82;21030;-65
2021/12/07 10:55:22;;;;;;;7.92;5.60;;;;;;;5.60;67.15;99851.70;1739391;82;21111;-64
2021/12/07 10:58:01;;;;;;;7.12;5.72;;;;;;;5.64;67.15;99859.97;1711062;82;21050;-65
2021/12/07 11:00:37;;;;;;;7.83;5.67;;;;;;;5.68;67.12;99849.16;1727811;82;21612;-66
2021/12/07 11:03:10;;;;;;;7.03;5.30;;;;;;;5.66;67.18;99839.34;1739249;82;21237;-65
2021/12/07 11:05:54;;;;;;;9.28;5.42;;;;;;;5.65;67.22;99846.47;1740593;82;20967;-65
2021/12/07 11:08:28;;;;;;;7.53;4.72;;;;;;;5.68;67.26;99849.69;1740085;82;21015;-64
2021/12/07 11:10:55;;;;;;;6.62;4.85;;;;;;;5.70;67.22;99850.27;1711001;83;21585;-64
2021/12/07 11:13:34;;;;;;;7.15;5.33;;;;;;;5.61;67.19;99843.23;1710988;83;21042;-66
2021/12/07 11:16:03;;;;;;;7.17;5.17;;;;;;;5.53;67.28;99843.13;1710981;82;21582;-66
2021/12/07 11:18:33;;;;;;;7.03;5.37;;;;;;;5.47;67.41;99830.84;1710364;83;21013;-66
2021/12/07 11:21:10;;;;;;;6.75;5.20;;;;;;;5.44;67.57;99827.87;1710885;83;21484;-65
2021/12/07 11:23:43;;;;;;;8.00;5.58;;;;;;;5.36;67.72;99831.20;1719341;82;21094;-65
2021/12/07 11:31:40;;;;;;;8.08;5.80;;;;;;;5.34;68.07;99842.55;1740490;82;21569;-65
2021/12/07 11:34:14;;;;;;;7.08;5.80;;;;;;;5.37;68.13;99838.09;1730089;82;21102;-66
2021/12/07 11:36:53;;;;;;;7.30;5.65;;;;;;;5.34;68.11;99833.27;1711234;83;21006;-66
2021/12/07 11:39:50;;;;;;;8.33;6.40;;;;;;;5.32;68.18;99827.41;1728893;81;21098;-65
2021/12/07 11:42:27;;;;;;;8.30;6.10;;;;;;;5.33;68.29;99828.20;1741031;81;21154;-65
2021/12/07 11:45:11;;;;;;;8.25;5.97;;;;;;;5.32;68.33;99819.98;1740329;82;21802;-65
2021/12/07 11:47:42;;;;;;;9.43;6.35;;;;;;;5.29;68.29;99812.00;1740332;82;21086;-64
2021/12/07 11:50:32;;;;;;;9.73;5.95;;;;;;;5.28;68.35;99817.02;1740513;81;21466;-65
2021/12/07 11:53:12;;;;;;;10.25;6.67;;;;;;;5.25;68.42;99808.23;1740550;82;21536;-65
2021/12/07 11:55:42;;;;;;;9.13;6.50;;;;;;;5.25;68.42;99816.17;1737416;82;21190;-65
2021/12/07 11:58:09;;;;;;;8.33;5.62;;;;;;;5.23;68.43;99821.42;1740283;82;21019;-65
2021/12/07 12:00:41;;;;;;;8.15;5.83;;;;;;;5.21;68.51;99824.32;1740356;82;21019;-65
2021/12/07 12:03:11;;;;;;;9.28;6.03;;;;;;;5.20;68.56;99831.16;1709974;83;21152;-66
2021/12/07 12:05:40;;;;;;;7.58;5.62;;;;;;;5.21;68.55;99834.11;1738116;82;21026;-65
2021/12/07 12:08:09;;;;;;;8.13;5.65;;;;;;;5.22;68.60;99843.13;1736622;82;21794;-64
2021/12/07 12:10:42;;;;;;;7.58;5.50;;;;;;;5.25;68.65;99842.65;1725057;82;21125;-65
2021/12/07 12:13:39;;;;;;;6.92;5.00;;;;;;;5.27;68.64;99852.49;1728237;81;21093;-64
2021/12/07 12:16:23;;;;;;;8.40;5.35;;;;;;;5.30;68.61;99860.48;1669186;82;22232;-64
2021/12/07 12:18:57;;;;;;;7.70;5.10;;;;;;;5.31;68.59;99858.11;1723221;82;21129;-65
2021/12/07 12:21:48;;;;;;;6.90;5.17;;;;;;;5.30;68.55;99853.86;1725556;82;21154;-65
2021/12/07 12:24:45;;;;;;;7.67;5.45;;;;;;;5.33;68.55;99848.89;1722669;82;21065;-65
2021/12/07 12:27:20;;;;;;;6.80;4.92;;;;;;;5.34;68.56;99855.78;1726993;82;21086;-65
2021/12/07 12:29:51;;;;;;;7.67;5.10;;;;;;;5.32;68.61;99853.88;1726514;82;21573;-65
2021/12/07 12:32:36;;;;;;;8.40;5.65;;;;;;;5.32;68.63;99843.81;1730493;82;21023;-64
2021/12/07 12:35:06;;;;;;;7.08;4.83;;;;;;;5.33;68.58;99841.44;1724902;82;21043;-65
2021/12/07 12:37:34;;;;;;;8.13;5.05;;;;;;;5.38;68.37;99837.56;1729255;81;20955;-66
2021/12/07 12:40:07;;;;;;;7.78;5.03;;;;;;;5.36;68.42;99848.41;1731966;81;21628;-64
2021/12/07 12:42:43;;;;;;;7.25;5.03;;;;;;;5.35;68.41;99840.17;1726034;82;21058;-64
2021/12/07 12:45:26;;;;;;;8.08;5.65;;;;;;;5.35;68.47;99840.69;1733417;81;21063;-65
2021/12/07 12:48:11;;;;;;;6.60;4.65;;;;;;;5.35;68.46;99836.72;1726372;81;21199;-65
2021/12/07 12:50:49;;;;;;;8.40;5.58;;;;;;;5.31;68.46;99832.42;1730535;82;21553;-65
2021/12/07 12:53:32;;;;;;;6.37;4.45;;;;;;;5.27;68.48;99816.75;1730909;81;21196;-65
2021/12/07 12:56:16;;;;;;;7.92;5.12;;;;;;;5.24;68.52;99817.22;1730950;81;21902;-64
2021/12/07 12:58:53;;;;;;;7.72;5.50;;;;;;;5.18;68.63;99816.86;1724907;82;21157;-63
2021/12/07 13:01:37;;;;;;;6.85;5.17;;;;;;;5.15;68.60;99818.13;1726404;82;21823;-66
2021/12/07 13:04:08;;;;;;;6.70;4.28;;;;;;;5.17;68.58;99815.26;1729862;82;21054;-65
2021/12/07 13:07:03;;;;;;;6.53;4.45;;;;;;;5.17;68.50;99819.23;1725518;82;21561;-65
2021/12/07 13:09:27;;;;;;;5.65;3.92;;;;;;;5.16;68.49;99821.57;1729691;82;21022;-66
2021/12/07 13:12:15;;;;;;;8.08;4.75;;;;;;;5.20;68.33;99829.84;1727443;82;21054;-66
2021/12/07 13:15:10;;;;;;;7.05;3.80;;;;;;;5.15;68.36;99834.02;1726801;82;21979;-67
2021/12/07 13:17:46;;;;;;;5.65;4.10;;;;;;;5.13;68.42;99833.47;1725833;82;21089;-66
2021/12/07 13:20:29;;;;;;;6.25;4.45;;;;;;;5.08;68.60;99820.66;1724720;82;21027;-65
2021/12/07 13:23:10;;;;;;;6.45;4.28;;;;;;;5.07;68.63;99824.35;1730483;82;21094;-66